sensor_id;sensor_type;location;lat;lon;timestamp;temperature;humidity
6377;DHT22;3221;48.858;10.128;2023-05-17T00:01:00;7.80;99.90
6377;DHT22;3221;48.858;10.128;2023-05-17T00:03:27;7.80;99.90
6377;DHT22;3221;48.858;10.128;2023-05-17T00:05:54;7.70;99.90
6377;DHT22;3221;48.858;10.128;2023-05-17T00:08:21;7.80;99.90
6377;DHT22;3221;48.858;10.128;2023-05-17T00:10:48;7.80;99.90
6377;DHT22;3221;48.858;10.128;2023-05-17T00:13:15;7.50;99.90
6377;DHT22;3221;48.858;10.128;2023-05-17T00:15:42;7.70;99.90
6377;DHT22;3221;48.858;10.128;2023-05-17T00:18:09;7.60;99.90
6377;DHT22;3221;48.858;10.128;2023-05-17T00:20:36;7.70;99.90
6377;DHT22;3221;48.858;10.128;2023-05-17T00:23:03;7.60;99.90
6377;DHT22;3221;48.858;10.128;2023-05-17T00:25:30;7.70;99.90
6377;DHT22;3221;48.858;10.128;2023-05-17T00:27:57;7.50;99.90
6377;DHT22;3221;48.858;10.128;2023-05-17T00:30:24;7.60;99.90
6377;DHT22;3221;48.858;10.128;2023-05-17T00:32:51;7.40;99.90
6377;DHT22;3221;48.858;10.128;2023-05-17T00:35:18;7.40;99.90
6377;DHT22;3221;48.858;10.128;2023-05-17T00:37:45;7.40;99.90
6377;DHT22;3221;48.858;10.128;2023-05-17T00:40:14;7.40;99.90
6377;DHT22;3221;48.858;10.128;2023-05-17T00:42:42;7.30;99.90
6377;DHT22;3221;48.858;10.128;2023-05-17T00:45:09;7.50;99.90
6377;DHT22;3221;48.858;10.128;2023-05-17T00:47:36;7.30;99.90
6377;DHT22;3221;48.858;10.128;2023-05-17T00:50:04;7.20;99.90
6377;DHT22;3221;48.858;10.128;2023-05-17T00:52:32;7.20;99.90
6377;DHT22;3221;48.858;10.128;2023-05-17T00:54:59;7.20;99.90
6377;DHT22;3221;48.858;10.128;2023-05-17T00:57:26;7.20;99.90
6377;DHT22;3221;48.858;10.128;2023-05-17T00:59:55;7.20;99.90
6377;DHT22;3221;48.858;10.128;2023-05-17T01:02:23;7.20;99.90
6377;DHT22;3221;48.858;10.128;2023-05-17T01:04:50;7.00;99.90
6377;DHT22;3221;48.858;10.128;2023-05-17T01:07:17;7.10;99.90
6377;DHT22;3221;48.858;10.128;2023-05-17T01:09:46;7.20;99.90
6377;DHT22;3221;48.858;10.128;2023-05-17T01:15:22;7.10;99.90
6377;DHT22;3221;48.858;10.128;2023-05-17T01:20:34;7.00;99.90
6377;DHT22;3221;48.858;10.128;2023-05-17T01:26:09;7.10;99.90
6377;DHT22;3221;48.858;10.128;2023-05-17T01:28:41;7.00;99.90
6377;DHT22;3221;48.858;10.128;2023-05-17T01:31:10;7.30;99.90
6377;DHT22;3221;48.858;10.128;2023-05-17T01:33:38;7.10;99.90
6377;DHT22;3221;48.858;10.128;2023-05-17T01:36:07;7.10;99.90
6377;DHT22;3221;48.858;10.128;2023-05-17T01:38:34;7.00;99.90
6377;DHT22;3221;48.858;10.128;2023-05-17T01:42:08;7.30;99.90
6377;DHT22;3221;48.858;10.128;2023-05-17T01:46:41;7.00;99.90
6377;DHT22;3221;48.858;10.128;2023-05-17T01:49:15;7.10;99.90
6377;DHT22;3221;48.858;10.128;2023-05-17T01:51:48;7.10;99.90
6377;DHT22;3221;48.858;10.128;2023-05-17T01:54:22;6.90;99.90
6377;DHT22;3221;48.858;10.128;2023-05-17T01:56:57;6.80;99.90
6377;DHT22;3221;48.858;10.128;2023-05-17T01:59:24;6.80;99.90
6377;DHT22;3221;48.858;10.128;2023-05-17T02:01:58;6.90;99.90
6377;DHT22;3221;48.858;10.128;2023-05-17T02:04:32;6.90;99.90
6377;DHT22;3221;48.858;10.128;2023-05-17T02:07:01;6.80;99.90
6377;DHT22;3221;48.858;10.128;2023-05-17T02:09:28;7.00;99.90
6377;DHT22;3221;48.858;10.128;2023-05-17T02:11:55;6.90;99.90
6377;DHT22;3221;48.858;10.128;2023-05-17T02:14:22;6.80;99.90
6377;DHT22;3221;48.858;10.128;2023-05-17T02:16:49;6.80;99.90
6377;DHT22;3221;48.858;10.128;2023-05-17T02:19:16;6.90;99.90
6377;DHT22;3221;48.858;10.128;2023-05-17T02:21:43;6.80;99.90
6377;DHT22;3221;48.858;10.128;2023-05-17T02:24:10;6.70;99.90
6377;DHT22;3221;48.858;10.128;2023-05-17T02:26:37;6.70;99.90
6377;DHT22;3221;48.858;10.128;2023-05-17T02:29:08;7.00;99.90
6377;DHT22;3221;48.858;10.128;2023-05-17T02:31:36;6.70;99.90
6377;DHT22;3221;48.858;10.128;2023-05-17T02:34:03;6.70;99.90
6377;DHT22;3221;48.858;10.128;2023-05-17T02:36:31;6.90;99.90
6377;DHT22;3221;48.858;10.128;2023-05-17T02:38:58;6.80;99.90
6377;DHT22;3221;48.858;10.128;2023-05-17T02:41:25;6.70;99.90
6377;DHT22;3221;48.858;10.128;2023-05-17T02:43:52;6.60;99.90
6377;DHT22;3221;48.858;10.128;2023-05-17T02:46:19;6.70;99.90
6377;DHT22;3221;48.858;10.128;2023-05-17T02:48:47;6.60;99.90
6377;DHT22;3221;48.858;10.128;2023-05-17T02:51:14;6.70;99.90
6377;DHT22;3221;48.858;10.128;2023-05-17T02:53:41;6.60;99.90
6377;DHT22;3221;48.858;10.128;2023-05-17T02:56:08;6.60;99.90
6377;DHT22;3221;48.858;10.128;2023-05-17T02:58:35;6.50;99.90
6377;DHT22;3221;48.858;10.128;2023-05-17T03:01:03;6.70;99.90
6377;DHT22;3221;48.858;10.128;2023-05-17T03:03:30;6.50;99.90
6377;DHT22;3221;48.858;10.128;2023-05-17T03:06:01;6.60;99.90
6377;DHT22;3221;48.858;10.128;2023-05-17T03:08:31;6.40;99.90
6377;DHT22;3221;48.858;10.128;2023-05-17T03:10:59;6.40;99.90
6377;DHT22;3221;48.858;10.128;2023-05-17T03:13:27;6.30;99.90
6377;DHT22;3221;48.858;10.128;2023-05-17T03:15:54;6.30;99.90
6377;DHT22;3221;48.858;10.128;2023-05-17T03:18:21;6.50;99.90
6377;DHT22;3221;48.858;10.128;2023-05-17T03:20:49;6.40;99.90
6377;DHT22;3221;48.858;10.128;2023-05-17T03:23:17;6.60;99.90
6377;DHT22;3221;48.858;10.128;2023-05-17T03:25:51;6.10;99.90
6377;DHT22;3221;48.858;10.128;2023-05-17T03:28:18;6.20;99.90
6377;DHT22;3221;48.858;10.128;2023-05-17T03:30:46;6.50;99.90
6377;DHT22;3221;48.858;10.128;2023-05-17T03:33:14;6.50;99.90
6377;DHT22;3221;48.858;10.128;2023-05-17T03:35:41;6.00;99.90
6377;DHT22;3221;48.858;10.128;2023-05-17T03:38:08;6.00;99.90
6377;DHT22;3221;48.858;10.128;2023-05-17T03:40:35;5.90;99.90
6377;DHT22;3221;48.858;10.128;2023-05-17T03:43:02;6.20;99.90
6377;DHT22;3221;48.858;10.128;2023-05-17T03:45:29;5.80;99.90
6377;DHT22;3221;48.858;10.128;2023-05-17T03:47:56;5.90;99.90
6377;DHT22;3221;48.858;10.128;2023-05-17T03:50:25;5.90;99.90
6377;DHT22;3221;48.858;10.128;2023-05-17T03:52:52;5.80;99.90
6377;DHT22;3221;48.858;10.128;2023-05-17T03:55:19;5.70;99.90
6377;DHT22;3221;48.858;10.128;2023-05-17T03:57:46;5.70;99.90
6377;DHT22;3221;48.858;10.128;2023-05-17T04:00:14;5.90;99.90
6377;DHT22;3221;48.858;10.128;2023-05-17T04:02:50;5.70;99.90
6377;DHT22;3221;48.858;10.128;2023-05-17T04:05:18;5.70;99.90
6377;DHT22;3221;48.858;10.128;2023-05-17T04:07:47;5.60;99.90
6377;DHT22;3221;48.858;10.128;2023-05-17T04:10:14;5.60;99.90
6377;DHT22;3221;48.858;10.128;2023-05-17T04:12:44;5.50;99.90
6377;DHT22;3221;48.858;10.128;2023-05-17T04:15:11;5.60;99.90
6377;DHT22;3221;48.858;10.128;2023-05-17T04:17:39;5.50;99.90
6377;DHT22;3221;48.858;10.128;2023-05-17T04:20:07;5.60;99.90
6377;DHT22;3221;48.858;10.128;2023-05-17T04:22:35;5.60;99.90
6377;DHT22;3221;48.858;10.128;2023-05-17T04:25:02;5.50;99.90
6377;DHT22;3221;48.858;10.128;2023-05-17T04:27:30;5.50;99.90
6377;DHT22;3221;48.858;10.128;2023-05-17T04:29:57;5.50;99.90
6377;DHT22;3221;48.858;10.128;2023-05-17T04:32:25;5.70;99.90
6377;DHT22;3221;48.858;10.128;2023-05-17T04:34:54;5.50;99.90
6377;DHT22;3221;48.858;10.128;2023-05-17T04:37:22;5.50;99.90
6377;DHT22;3221;48.858;10.128;2023-05-17T04:39:53;5.60;99.90
6377;DHT22;3221;48.858;10.128;2023-05-17T04:42:20;5.50;99.90
6377;DHT22;3221;48.858;10.128;2023-05-17T04:44:53;5.80;99.90
6377;DHT22;3221;48.858;10.128;2023-05-17T04:47:20;5.50;99.90
6377;DHT22;3221;48.858;10.128;2023-05-17T04:49:47;5.50;99.90
6377;DHT22;3221;48.858;10.128;2023-05-17T04:52:14;5.40;99.90
6377;DHT22;3221;48.858;10.128;2023-05-17T04:54:44;5.40;99.90
6377;DHT22;3221;48.858;10.128;2023-05-17T04:57:12;5.40;99.90
6377;DHT22;3221;48.858;10.128;2023-05-17T04:59:53;5.40;99.90
6377;DHT22;3221;48.858;10.128;2023-05-17T05:02:20;5.70;99.90
6377;DHT22;3221;48.858;10.128;2023-05-17T05:04:47;5.80;99.90
6377;DHT22;3221;48.858;10.128;2023-05-17T05:07:15;5.80;99.90
6377;DHT22;3221;48.858;10.128;2023-05-17T05:09:44;5.50;99.90
6377;DHT22;3221;48.858;10.128;2023-05-17T05:12:13;5.50;99.90
6377;DHT22;3221;48.858;10.128;2023-05-17T05:14:41;5.40;99.90
6377;DHT22;3221;48.858;10.128;2023-05-17T05:17:08;5.30;99.90
6377;DHT22;3221;48.858;10.128;2023-05-17T05:19:37;5.60;99.90
6377;DHT22;3221;48.858;10.128;2023-05-17T05:22:05;5.70;99.90
6377;DHT22;3221;48.858;10.128;2023-05-17T05:24:35;5.50;99.90
6377;DHT22;3221;48.858;10.128;2023-05-17T05:27:06;5.60;99.90
6377;DHT22;3221;48.858;10.128;2023-05-17T05:29:34;5.50;99.90
6377;DHT22;3221;48.858;10.128;2023-05-17T05:32:01;5.50;99.90
6377;DHT22;3221;48.858;10.128;2023-05-17T05:34:31;5.80;99.90
6377;DHT22;3221;48.858;10.128;2023-05-17T05:36:59;5.80;99.90
6377;DHT22;3221;48.858;10.128;2023-05-17T05:39:26;5.70;99.90
6377;DHT22;3221;48.858;10.128;2023-05-17T05:41:54;5.70;99.90
6377;DHT22;3221;48.858;10.128;2023-05-17T05:44:21;6.30;99.90
6377;DHT22;3221;48.858;10.128;2023-05-17T05:46:52;5.90;99.90
6377;DHT22;3221;48.858;10.128;2023-05-17T05:49:19;6.00;99.90
6377;DHT22;3221;48.858;10.128;2023-05-17T05:51:47;6.10;99.90
6377;DHT22;3221;48.858;10.128;2023-05-17T05:54:15;6.10;99.90
6377;DHT22;3221;48.858;10.128;2023-05-17T05:56:43;5.90;99.90
6377;DHT22;3221;48.858;10.128;2023-05-17T05:59:12;6.10;99.90
6377;DHT22;3221;48.858;10.128;2023-05-17T06:01:39;6.30;99.90
6377;DHT22;3221;48.858;10.128;2023-05-17T06:04:07;6.30;99.90
6377;DHT22;3221;48.858;10.128;2023-05-17T06:06:34;6.00;99.90
6377;DHT22;3221;48.858;10.128;2023-05-17T06:09:02;6.20;99.90
6377;DHT22;3221;48.858;10.128;2023-05-17T06:11:29;6.30;99.90
6377;DHT22;3221;48.858;10.128;2023-05-17T06:13:58;6.40;99.90
6377;DHT22;3221;48.858;10.128;2023-05-17T06:16:25;6.50;99.90
6377;DHT22;3221;48.858;10.128;2023-05-17T06:18:52;6.20;99.90
6377;DHT22;3221;48.858;10.128;2023-05-17T06:21:19;6.50;99.90
6377;DHT22;3221;48.858;10.128;2023-05-17T06:23:46;6.30;99.90
6377;DHT22;3221;48.858;10.128;2023-05-17T06:26:13;6.60;99.90
6377;DHT22;3221;48.858;10.128;2023-05-17T06:28:40;6.50;99.90
6377;DHT22;3221;48.858;10.128;2023-05-17T06:31:07;7.00;99.90
6377;DHT22;3221;48.858;10.128;2023-05-17T06:33:34;6.30;99.90
6377;DHT22;3221;48.858;10.128;2023-05-17T06:36:01;6.60;99.90
6377;DHT22;3221;48.858;10.128;2023-05-17T06:38:28;7.10;99.90
6377;DHT22;3221;48.858;10.128;2023-05-17T06:40:56;6.50;99.90
6377;DHT22;3221;48.858;10.128;2023-05-17T06:43:24;6.60;99.90
6377;DHT22;3221;48.858;10.128;2023-05-17T06:45:51;6.70;99.90
6377;DHT22;3221;48.858;10.128;2023-05-17T06:48:18;7.00;99.90
6377;DHT22;3221;48.858;10.128;2023-05-17T06:50:45;6.80;99.90
6377;DHT22;3221;48.858;10.128;2023-05-17T06:53:13;7.00;99.90
6377;DHT22;3221;48.858;10.128;2023-05-17T06:55:40;6.80;99.90
6377;DHT22;3221;48.858;10.128;2023-05-17T06:58:09;6.90;99.90
6377;DHT22;3221;48.858;10.128;2023-05-17T07:00:36;7.00;99.90
6377;DHT22;3221;48.858;10.128;2023-05-17T07:03:03;7.20;99.90
6377;DHT22;3221;48.858;10.128;2023-05-17T07:05:30;7.20;99.90
6377;DHT22;3221;48.858;10.128;2023-05-17T07:07:58;7.00;99.90
6377;DHT22;3221;48.858;10.128;2023-05-17T07:10:25;7.00;99.90
6377;DHT22;3221;48.858;10.128;2023-05-17T07:12:52;7.10;99.90
6377;DHT22;3221;48.858;10.128;2023-05-17T07:15:19;7.00;99.90
6377;DHT22;3221;48.858;10.128;2023-05-17T07:17:46;7.30;99.90
6377;DHT22;3221;48.858;10.128;2023-05-17T07:20:13;7.60;99.90
6377;DHT22;3221;48.858;10.128;2023-05-17T07:22:41;7.00;99.90
6377;DHT22;3221;48.858;10.128;2023-05-17T07:25:08;7.20;99.90
6377;DHT22;3221;48.858;10.128;2023-05-17T07:27:35;7.20;99.90
6377;DHT22;3221;48.858;10.128;2023-05-17T07:30:03;7.40;99.90
6377;DHT22;3221;48.858;10.128;2023-05-17T07:32:30;7.30;99.90
6377;DHT22;3221;48.858;10.128;2023-05-17T07:34:58;7.50;99.90
6377;DHT22;3221;48.858;10.128;2023-05-17T07:37:25;7.40;99.90
6377;DHT22;3221;48.858;10.128;2023-05-17T07:39:52;7.20;99.90
6377;DHT22;3221;48.858;10.128;2023-05-17T07:42:19;7.20;99.90
6377;DHT22;3221;48.858;10.128;2023-05-17T07:44:46;7.80;99.90
6377;DHT22;3221;48.858;10.128;2023-05-17T07:47:15;7.60;99.90
6377;DHT22;3221;48.858;10.128;2023-05-17T07:49:42;7.40;99.90
6377;DHT22;3221;48.858;10.128;2023-05-17T07:52:09;7.60;99.90
6377;DHT22;3221;48.858;10.128;2023-05-17T07:54:37;7.60;99.90
6377;DHT22;3221;48.858;10.128;2023-05-17T07:57:05;7.60;99.90
6377;DHT22;3221;48.858;10.128;2023-05-17T07:59:32;8.30;99.90
6377;DHT22;3221;48.858;10.128;2023-05-17T08:01:59;7.70;99.90
6377;DHT22;3221;48.858;10.128;2023-05-17T08:04:26;8.70;99.90
6377;DHT22;3221;48.858;10.128;2023-05-17T08:06:53;8.30;99.90
6377;DHT22;3221;48.858;10.128;2023-05-17T08:09:21;7.90;99.90
6377;DHT22;3221;48.858;10.128;2023-05-17T08:11:48;7.70;99.90
6377;DHT22;3221;48.858;10.128;2023-05-17T08:14:15;7.80;99.90
6377;DHT22;3221;48.858;10.128;2023-05-17T08:16:45;7.80;99.90
6377;DHT22;3221;48.858;10.128;2023-05-17T08:19:13;8.00;99.90
6377;DHT22;3221;48.858;10.128;2023-05-17T08:21:41;8.00;99.90
6377;DHT22;3221;48.858;10.128;2023-05-17T08:24:09;7.40;99.90
6377;DHT22;3221;48.858;10.128;2023-05-17T08:26:37;7.60;99.90
6377;DHT22;3221;48.858;10.128;2023-05-17T08:29:05;7.60;99.90
6377;DHT22;3221;48.858;10.128;2023-05-17T08:31:32;7.70;99.90
6377;DHT22;3221;48.858;10.128;2023-05-17T08:33:59;8.10;99.90
6377;DHT22;3221;48.858;10.128;2023-05-17T08:36:26;8.10;99.90
6377;DHT22;3221;48.858;10.128;2023-05-17T08:38:54;7.70;99.90
6377;DHT22;3221;48.858;10.128;2023-05-17T08:41:21;8.00;99.90
6377;DHT22;3221;48.858;10.128;2023-05-17T08:43:48;8.20;99.90
6377;DHT22;3221;48.858;10.128;2023-05-17T08:46:18;8.00;99.90
6377;DHT22;3221;48.858;10.128;2023-05-17T08:48:52;8.10;99.90
6377;DHT22;3221;48.858;10.128;2023-05-17T08:51:21;8.10;99.90
6377;DHT22;3221;48.858;10.128;2023-05-17T08:53:49;8.10;99.90
6377;DHT22;3221;48.858;10.128;2023-05-17T08:56:16;8.00;99.90
6377;DHT22;3221;48.858;10.128;2023-05-17T08:58:46;8.10;99.90
6377;DHT22;3221;48.858;10.128;2023-05-17T09:01:17;8.10;99.90
6377;DHT22;3221;48.858;10.128;2023-05-17T09:03:46;8.40;99.90
6377;DHT22;3221;48.858;10.128;2023-05-17T09:06:19;8.10;99.90
6377;DHT22;3221;48.858;10.128;2023-05-17T09:08:49;8.10;99.90
6377;DHT22;3221;48.858;10.128;2023-05-17T09:11:24;8.10;99.90
6377;DHT22;3221;48.858;10.128;2023-05-17T09:13:52;8.50;99.90
6377;DHT22;3221;48.858;10.128;2023-05-17T09:16:20;8.70;99.90
6377;DHT22;3221;48.858;10.128;2023-05-17T09:18:55;8.60;99.90
6377;DHT22;3221;48.858;10.128;2023-05-17T09:21:23;8.80;99.90
6377;DHT22;3221;48.858;10.128;2023-05-17T09:23:51;8.40;99.90
6377;DHT22;3221;48.858;10.128;2023-05-17T09:26:43;8.20;99.90
6377;DHT22;3221;48.858;10.128;2023-05-17T09:29:11;8.50;99.90
6377;DHT22;3221;48.858;10.128;2023-05-17T09:31:39;8.50;99.90
6377;DHT22;3221;48.858;10.128;2023-05-17T09:34:07;8.40;99.90
6377;DHT22;3221;48.858;10.128;2023-05-17T09:36:36;8.60;99.90
6377;DHT22;3221;48.858;10.128;2023-05-17T09:39:06;8.90;99.90
6377;DHT22;3221;48.858;10.128;2023-05-17T09:41:46;8.40;99.90
6377;DHT22;3221;48.858;10.128;2023-05-17T09:44:14;8.70;99.90
6377;DHT22;3221;48.858;10.128;2023-05-17T09:46:44;8.60;99.90
6377;DHT22;3221;48.858;10.128;2023-05-17T09:49:12;8.90;99.90
6377;DHT22;3221;48.858;10.128;2023-05-17T09:51:41;8.90;99.90
6377;DHT22;3221;48.858;10.128;2023-05-17T09:54:09;9.00;99.90
6377;DHT22;3221;48.858;10.128;2023-05-17T09:56:37;9.60;99.90
6377;DHT22;3221;48.858;10.128;2023-05-17T09:59:10;9.30;99.90
6377;DHT22;3221;48.858;10.128;2023-05-17T10:01:40;9.20;99.90
6377;DHT22;3221;48.858;10.128;2023-05-17T10:04:08;9.80;99.90
6377;DHT22;3221;48.858;10.128;2023-05-17T10:06:40;9.20;99.90
6377;DHT22;3221;48.858;10.128;2023-05-17T10:09:12;9.40;99.90
6377;DHT22;3221;48.858;10.128;2023-05-17T10:11:42;9.20;99.90
6377;DHT22;3221;48.858;10.128;2023-05-17T10:14:32;9.00;99.90
6377;DHT22;3221;48.858;10.128;2023-05-17T10:17:01;9.10;99.90
6377;DHT22;3221;48.858;10.128;2023-05-17T10:19:29;9.10;99.90
6377;DHT22;3221;48.858;10.128;2023-05-17T10:21:57;9.30;99.90
6377;DHT22;3221;48.858;10.128;2023-05-17T10:24:44;9.30;99.90
6377;DHT22;3221;48.858;10.128;2023-05-17T10:27:12;10.40;99.90
6377;DHT22;3221;48.858;10.128;2023-05-17T10:29:40;9.40;99.90
6377;DHT22;3221;48.858;10.128;2023-05-17T10:32:07;9.60;99.90
6377;DHT22;3221;48.858;10.128;2023-05-17T10:34:38;9.40;99.90
6377;DHT22;3221;48.858;10.128;2023-05-17T10:37:05;9.30;99.90
6377;DHT22;3221;48.858;10.128;2023-05-17T10:39:33;9.50;99.90
6377;DHT22;3221;48.858;10.128;2023-05-17T10:42:06;9.40;99.90
6377;DHT22;3221;48.858;10.128;2023-05-17T10:44:41;9.30;99.90
6377;DHT22;3221;48.858;10.128;2023-05-17T10:47:09;9.50;99.90
6377;DHT22;3221;48.858;10.128;2023-05-17T10:49:37;9.60;99.90
6377;DHT22;3221;48.858;10.128;2023-05-17T10:52:15;9.50;99.90
6377;DHT22;3221;48.858;10.128;2023-05-17T10:54:45;9.20;99.90
6377;DHT22;3221;48.858;10.128;2023-05-17T10:57:33;9.60;99.90
6377;DHT22;3221;48.858;10.128;2023-05-17T11:00:20;9.50;99.90
6377;DHT22;3221;48.858;10.128;2023-05-17T11:03:19;9.70;99.90
6377;DHT22;3221;48.858;10.128;2023-05-17T11:09:13;9.50;99.90
6377;DHT22;3221;48.858;10.128;2023-05-17T11:12:06;9.60;99.90
6377;DHT22;3221;48.858;10.128;2023-05-17T11:14:46;9.70;99.90
6377;DHT22;3221;48.858;10.128;2023-05-17T11:17:15;9.70;99.90
6377;DHT22;3221;48.858;10.128;2023-05-17T11:20:06;9.70;99.90
6377;DHT22;3221;48.858;10.128;2023-05-17T11:22:41;9.70;99.90
6377;DHT22;3221;48.858;10.128;2023-05-17T11:25:11;9.80;99.90
6377;DHT22;3221;48.858;10.128;2023-05-17T11:27:46;10.10;99.90
6377;DHT22;3221;48.858;10.128;2023-05-17T11:30:29;9.80;99.90
6377;DHT22;3221;48.858;10.128;2023-05-17T11:33:01;9.80;99.90
6377;DHT22;3221;48.858;10.128;2023-05-17T11:35:36;9.80;99.90
6377;DHT22;3221;48.858;10.128;2023-05-17T11:38:15;10.00;99.90
6377;DHT22;3221;48.858;10.128;2023-05-17T11:40:44;9.90;99.90
6377;DHT22;3221;48.858;10.128;2023-05-17T11:43:25;10.10;99.90
6377;DHT22;3221;48.858;10.128;2023-05-17T11:45:57;10.10;99.90
6377;DHT22;3221;48.858;10.128;2023-05-17T11:48:28;9.90;99.90
6377;DHT22;3221;48.858;10.128;2023-05-17T11:50:56;10.10;99.90
6377;DHT22;3221;48.858;10.128;2023-05-17T11:53:29;10.00;99.90
6377;DHT22;3221;48.858;10.128;2023-05-17T11:56:01;10.00;99.90
6377;DHT22;3221;48.858;10.128;2023-05-17T11:58:30;10.10;99.90
6377;DHT22;3221;48.858;10.128;2023-05-17T12:00:58;10.00;99.90
6377;DHT22;3221;48.858;10.128;2023-05-17T12:03:29;9.70;99.90
6377;DHT22;3221;48.858;10.128;2023-05-17T12:06:08;10.10;99.90
6377;DHT22;3221;48.858;10.128;2023-05-17T12:08:37;9.90;99.90
6377;DHT22;3221;48.858;10.128;2023-05-17T12:11:05;10.30;99.90
6377;DHT22;3221;48.858;10.128;2023-05-17T12:13:34;10.20;99.90
6377;DHT22;3221;48.858;10.128;2023-05-17T12:16:07;10.40;99.90
6377;DHT22;3221;48.858;10.128;2023-05-17T12:18:43;10.30;99.90
6377;DHT22;3221;48.858;10.128;2023-05-17T12:21:14;10.20;99.90
6377;DHT22;3221;48.858;10.128;2023-05-17T12:23:44;10.30;99.90
6377;DHT22;3221;48.858;10.128;2023-05-17T12:26:16;10.20;99.90
6377;DHT22;3221;48.858;10.128;2023-05-17T12:28:56;10.20;99.90
6377;DHT22;3221;48.858;10.128;2023-05-17T12:33:56;10.10;99.90
6377;DHT22;3221;48.858;10.128;2023-05-17T12:36:27;10.60;99.90
6377;DHT22;3221;48.858;10.128;2023-05-17T12:38:55;10.40;99.90
6377;DHT22;3221;48.858;10.128;2023-05-17T12:41:23;10.60;99.90
6377;DHT22;3221;48.858;10.128;2023-05-17T12:43:52;10.30;99.90
6377;DHT22;3221;48.858;10.128;2023-05-17T12:46:39;10.40;99.90
6377;DHT22;3221;48.858;10.128;2023-05-17T12:49:10;10.10;99.90
6377;DHT22;3221;48.858;10.128;2023-05-17T12:51:42;10.10;99.90
6377;DHT22;3221;48.858;10.128;2023-05-17T12:54:28;10.10;99.90
6377;DHT22;3221;48.858;10.128;2023-05-17T12:56:56;10.20;99.90
6377;DHT22;3221;48.858;10.128;2023-05-17T12:59:23;10.10;99.90
6377;DHT22;3221;48.858;10.128;2023-05-17T13:01:56;10.10;99.90
6377;DHT22;3221;48.858;10.128;2023-05-17T13:04:32;10.30;99.90
6377;DHT22;3221;48.858;10.128;2023-05-17T13:07:02;10.10;99.90
6377;DHT22;3221;48.858;10.128;2023-05-17T13:09:30;10.30;99.90
6377;DHT22;3221;48.858;10.128;2023-05-17T13:11:59;10.20;99.90
6377;DHT22;3221;48.858;10.128;2023-05-17T13:17:23;10.10;99.90
6377;DHT22;3221;48.858;10.128;2023-05-17T13:19:50;10.10;99.90
6377;DHT22;3221;48.858;10.128;2023-05-17T13:22:17;10.20;99.90
6377;DHT22;3221;48.858;10.128;2023-05-17T13:24:44;10.20;99.90
6377;DHT22;3221;48.858;10.128;2023-05-17T13:27:12;10.20;99.90
6377;DHT22;3221;48.858;10.128;2023-05-17T13:29:40;10.10;99.90
6377;DHT22;3221;48.858;10.128;2023-05-17T13:32:09;10.20;99.90
6377;DHT22;3221;48.858;10.128;2023-05-17T13:34:38;10.20;99.90
6377;DHT22;3221;48.858;10.128;2023-05-17T13:37:06;10.20;99.90
6377;DHT22;3221;48.858;10.128;2023-05-17T13:39:38;10.00;99.90
6377;DHT22;3221;48.858;10.128;2023-05-17T13:42:05;10.20;99.90
6377;DHT22;3221;48.858;10.128;2023-05-17T13:44:32;10.10;99.90
6377;DHT22;3221;48.858;10.128;2023-05-17T13:46:59;10.40;99.90
6377;DHT22;3221;48.858;10.128;2023-05-17T13:49:26;10.10;99.90
6377;DHT22;3221;48.858;10.128;2023-05-17T13:51:54;10.20;99.90
6377;DHT22;3221;48.858;10.128;2023-05-17T13:54:21;10.20;99.90
6377;DHT22;3221;48.858;10.128;2023-05-17T13:56:51;9.90;99.90
6377;DHT22;3221;48.858;10.128;2023-05-17T13:59:19;10.20;99.90
6377;DHT22;3221;48.858;10.128;2023-05-17T14:01:46;10.00;99.90
6377;DHT22;3221;48.858;10.128;2023-05-17T14:04:13;10.00;99.90
6377;DHT22;3221;48.858;10.128;2023-05-17T14:06:41;9.90;99.90
6377;DHT22;3221;48.858;10.128;2023-05-17T14:09:08;10.00;99.90
6377;DHT22;3221;48.858;10.128;2023-05-17T14:11:35;10.10;99.90
6377;DHT22;3221;48.858;10.128;2023-05-17T14:14:02;10.20;99.90
6377;DHT22;3221;48.858;10.128;2023-05-17T14:16:30;10.00;99.90
6377;DHT22;3221;48.858;10.128;2023-05-17T14:18:57;10.20;99.90
6377;DHT22;3221;48.858;10.128;2023-05-17T14:21:28;9.90;99.90
6377;DHT22;3221;48.858;10.128;2023-05-17T14:23:55;10.20;99.90
6377;DHT22;3221;48.858;10.128;2023-05-17T14:26:22;10.00;99.90
6377;DHT22;3221;48.858;10.128;2023-05-17T14:28:49;9.90;99.90
6377;DHT22;3221;48.858;10.128;2023-05-17T14:31:19;9.90;99.90
6377;DHT22;3221;48.858;10.128;2023-05-17T14:33:47;9.80;99.90
6377;DHT22;3221;48.858;10.128;2023-05-17T14:36:14;10.00;99.90
6377;DHT22;3221;48.858;10.128;2023-05-17T14:38:41;10.00;99.90
6377;DHT22;3221;48.858;10.128;2023-05-17T14:41:08;10.00;99.90
6377;DHT22;3221;48.858;10.128;2023-05-17T14:43:35;10.00;99.90
6377;DHT22;3221;48.858;10.128;2023-05-17T14:46:03;10.00;99.90
6377;DHT22;3221;48.858;10.128;2023-05-17T14:48:30;9.90;99.90
6377;DHT22;3221;48.858;10.128;2023-05-17T14:50:58;10.00;99.90
6377;DHT22;3221;48.858;10.128;2023-05-17T14:53:25;9.80;99.90
6377;DHT22;3221;48.858;10.128;2023-05-17T14:55:58;9.80;99.90
6377;DHT22;3221;48.858;10.128;2023-05-17T14:58:26;9.70;99.90
6377;DHT22;3221;48.858;10.128;2023-05-17T15:00:53;9.70;99.90
6377;DHT22;3221;48.858;10.128;2023-05-17T15:03:33;9.90;99.90
6377;DHT22;3221;48.858;10.128;2023-05-17T15:06:01;9.80;99.90
6377;DHT22;3221;48.858;10.128;2023-05-17T15:08:33;9.80;99.90
6377;DHT22;3221;48.858;10.128;2023-05-17T15:11:00;10.20;99.90
6377;DHT22;3221;48.858;10.128;2023-05-17T15:13:27;10.10;99.90
6377;DHT22;3221;48.858;10.128;2023-05-17T15:15:54;9.70;99.90
6377;DHT22;3221;48.858;10.128;2023-05-17T15:18:21;9.90;99.90
6377;DHT22;3221;48.858;10.128;2023-05-17T15:20:48;9.90;99.90
6377;DHT22;3221;48.858;10.128;2023-05-17T15:23:15;9.80;99.90
6377;DHT22;3221;48.858;10.128;2023-05-17T15:25:42;9.80;99.90
6377;DHT22;3221;48.858;10.128;2023-05-17T15:28:09;10.00;99.90
6377;DHT22;3221;48.858;10.128;2023-05-17T15:30:36;10.10;99.90
6377;DHT22;3221;48.858;10.128;2023-05-17T15:33:03;9.90;99.90
6377;DHT22;3221;48.858;10.128;2023-05-17T15:35:30;9.90;99.90
6377;DHT22;3221;48.858;10.128;2023-05-17T15:37:57;10.00;99.90
6377;DHT22;3221;48.858;10.128;2023-05-17T15:40:26;9.70;99.90
6377;DHT22;3221;48.858;10.128;2023-05-17T15:42:53;9.60;99.90
6377;DHT22;3221;48.858;10.128;2023-05-17T15:45:20;9.70;99.90
6377;DHT22;3221;48.858;10.128;2023-05-17T15:47:47;9.70;99.90
6377;DHT22;3221;48.858;10.128;2023-05-17T15:50:15;9.70;99.90
6377;DHT22;3221;48.858;10.128;2023-05-17T15:52:42;9.60;99.90
6377;DHT22;3221;48.858;10.128;2023-05-17T15:55:09;9.80;99.90
6377;DHT22;3221;48.858;10.128;2023-05-17T15:57:36;9.70;99.90
6377;DHT22;3221;48.858;10.128;2023-05-17T16:00:04;9.80;99.90
6377;DHT22;3221;48.858;10.128;2023-05-17T16:02:31;9.70;99.90
6377;DHT22;3221;48.858;10.128;2023-05-17T16:04:58;9.70;99.90
6377;DHT22;3221;48.858;10.128;2023-05-17T16:07:29;9.80;99.90
6377;DHT22;3221;48.858;10.128;2023-05-17T16:09:56;9.50;99.90
6377;DHT22;3221;48.858;10.128;2023-05-17T16:12:23;9.70;99.90
6377;DHT22;3221;48.858;10.128;2023-05-17T16:14:51;9.70;99.90
6377;DHT22;3221;48.858;10.128;2023-05-17T16:17:18;9.70;99.90
6377;DHT22;3221;48.858;10.128;2023-05-17T16:19:45;9.70;99.90
6377;DHT22;3221;48.858;10.128;2023-05-17T16:22:12;9.60;99.90
6377;DHT22;3221;48.858;10.128;2023-05-17T16:24:39;9.60;99.90
6377;DHT22;3221;48.858;10.128;2023-05-17T16:27:07;9.80;99.90
6377;DHT22;3221;48.858;10.128;2023-05-17T16:29:34;9.50;99.90
6377;DHT22;3221;48.858;10.128;2023-05-17T16:32:06;9.80;99.90